Time;durP1;ratioP1;P1;durP2;ratioP2;P2;SDS_P1;SDS_P2;PMS_P1;PMS_P2;Temp;Humidity;BMP_temperature;BMP_pressure;BME280_temperature;BME280_humidity;BME280_pressure;Samples;Min_cycle;Max_cycle;Signal;HPM_P1;HPM_P2
2023/08/07 00:00:35;;;;;;;5.95;2.30;;;;;;;;;;5008746;28;20038;-68
2023/08/07 00:03:00;;;;;;;8.35;2.47;;;;;;;;;;4995267;28;20030;-68
2023/08/07 00:05:25;;;;;;;6.20;2.60;;;;;;;;;;4997553;28;20515;-68
2023/08/07 00:07:51;;;;;;;8.05;2.25;;;;;;;;;;4993243;28;20025;-69
2023/08/07 00:10:17;;;;;;;6.18;2.40;;;;;;;;;;5027440;28;20025;-69
2023/08/07 00:12:42;;;;;;;9.18;3.20;;;;;;;;;;5026781;28;20037;-69
2023/08/07 00:15:09;;;;;;;4.43;2.30;;;;;;;;;;5027340;28;20051;-70
2023/08/07 00:17:35;;;;;;;4.90;2.40;;;;;;;;;;5027695;28;20038;-69
2023/08/07 00:20:00;;;;;;;3.92;2.50;;;;;;;;;;5026634;28;20022;-69
2023/08/07 00:22:25;;;;;;;8.75;2.80;;;;;;;;;;5010666;28;20033;-69
2023/08/07 00:24:51;;;;;;;6.30;2.35;;;;;;;;;;5027613;28;20051;-70
2023/08/07 00:27:16;;;;;;;10.63;2.58;;;;;;;;;;5028164;28;20628;-69
2023/08/07 00:29:42;;;;;;;8.32;2.80;;;;;;;;;;5030234;28;20782;-69
2023/08/07 00:32:07;;;;;;;5.18;2.67;;;;;;;;;;5048450;28;20033;-69
2023/08/07 00:34:33;;;;;;;10.48;3.17;;;;;;;;;;5047837;28;20052;-70
2023/08/07 00:36:58;;;;;;;4.22;2.33;;;;;;;;;;5048500;28;20024;-69
2023/08/07 00:39:24;;;;;;;5.78;2.55;;;;;;;;;;5047608;28;20033;-69
2023/08/07 00:41:49;;;;;;;5.35;2.63;;;;;;;;;;5048121;28;20533;-69
2023/08/07 00:44:14;;;;;;;11.40;2.85;;;;;;;;;;5046523;28;20048;-70
2023/08/07 00:46:40;;;;;;;7.10;2.67;;;;;;;;;;5043364;28;20112;-69
2023/08/07 00:49:08;;;;;;;7.93;2.40;;;;;;;;;;5048382;28;20017;-69
2023/08/07 00:51:33;;;;;;;9.02;2.75;;;;;;;;;;5047952;28;20132;-69
2023/08/07 00:54:01;;;;;;;4.88;2.47;;;;;;;;;;5048269;28;20108;-69
2023/08/07 00:56:27;;;;;;;6.40;2.50;;;;;;;;;;5052741;28;20033;-69
2023/08/07 00:58:53;;;;;;;10.15;2.80;;;;;;;;;;5048628;28;20033;-69
2023/08/07 01:01:19;;;;;;;8.90;2.88;;;;;;;;;;5047558;28;20028;-69
2023/08/07 01:03:44;;;;;;;6.70;2.50;;;;;;;;;;5047302;28;20539;-69
2023/08/07 01:06:10;;;;;;;9.70;2.65;;;;;;;;;;5047362;28;20029;-69
2023/08/07 01:08:36;;;;;;;6.90;2.55;;;;;;;;;;5046847;28;20025;-69
2023/08/07 01:11:38;;;;;;;5.45;2.90;;;;;;;;;;5046816;28;20059;-69
2023/08/07 01:14:29;;;;;;;7.43;2.33;;;;;;;;;;5047115;28;20052;-69
2023/08/07 01:17:05;;;;;;;7.10;2.83;;;;;;;;;;5047224;28;20037;-69
2023/08/07 01:19:31;;;;;;;6.82;2.38;;;;;;;;;;5046686;28;20115;-69
2023/08/07 01:22:09;;;;;;;7.43;2.63;;;;;;;;;;5046165;28;20032;-69
2023/08/07 01:24:36;;;;;;;11.45;2.50;;;;;;;;;;5046269;28;20106;-69
2023/08/07 01:27:15;;;;;;;4.93;2.38;;;;;;;;;;5045834;28;20033;-69
2023/08/07 01:29:47;;;;;;;11.85;3.03;;;;;;;;;;5046975;28;20072;-69
2023/08/07 01:32:21;;;;;;;7.95;2.90;;;;;;;;;;5047188;28;20454;-69
2023/08/07 01:34:48;;;;;;;5.07;2.63;;;;;;;;;;5046383;28;20020;-69
2023/08/07 01:37:13;;;;;;;6.43;2.47;;;;;;;;;;5062233;28;20104;-69
2023/08/07 01:39:41;;;;;;;6.07;2.88;;;;;;;;;;5046987;28;20120;-69
2023/08/07 01:42:07;;;;;;;6.70;2.88;;;;;;;;;;5031332;28;20029;-69
2023/08/07 01:44:32;;;;;;;8.52;3.30;;;;;;;;;;5035512;28;20585;-69
2023/08/07 01:46:58;;;;;;;4.07;2.30;;;;;;;;;;5046659;28;20029;-69
2023/08/07 01:49:23;;;;;;;5.68;2.78;;;;;;;;;;5046599;28;20029;-69
2023/08/07 01:51:48;;;;;;;6.82;2.60;;;;;;;;;;5045508;28;20078;-69
2023/08/07 01:54:14;;;;;;;5.50;2.72;;;;;;;;;;5046655;28;20056;-69
2023/08/07 01:56:40;;;;;;;7.03;2.92;;;;;;;;;;5046052;28;20071;-69
2023/08/07 01:59:05;;;;;;;9.07;3.10;;;;;;;;;;5046431;28;20032;-69
2023/08/07 02:01:30;;;;;;;5.45;2.97;;;;;;;;;;5046083;28;20384;-69
2023/08/07 02:03:56;;;;;;;7.10;2.88;;;;;;;;;;5045616;28;20024;-69
2023/08/07 02:06:21;;;;;;;6.35;2.95;;;;;;;;;;5044541;28;20036;-68
2023/08/07 02:08:47;;;;;;;4.38;2.47;;;;;;;;;;5046118;28;20710;-69
2023/08/07 02:11:12;;;;;;;5.35;2.60;;;;;;;;;;5045871;28;20526;-69
2023/08/07 02:13:37;;;;;;;5.40;3.00;;;;;;;;;;5046539;28;20017;-69
2023/08/07 02:16:03;;;;;;;7.35;2.65;;;;;;;;;;5046942;28;20047;-69
2023/08/07 02:18:28;;;;;;;4.43;2.58;;;;;;;;;;5050589;28;20029;-69
2023/08/07 02:20:53;;;;;;;5.10;2.58;;;;;;;;;;5048753;28;20104;-69
2023/08/07 02:23:19;;;;;;;5.65;2.03;;;;;;;;;;5044590;28;20943;-69
2023/08/07 02:25:45;;;;;;;7.03;2.10;;;;;;;;;;5045082;28;20024;-69
2023/08/07 02:28:11;;;;;;;4.35;2.72;;;;;;;;;;5046364;28;20663;-69
2023/08/07 02:30:36;;;;;;;7.95;2.63;;;;;;;;;;5044729;28;20609;-69
2023/08/07 02:33:01;;;;;;;7.20;2.95;;;;;;;;;;5045879;28;20037;-69
2023/08/07 02:35:27;;;;;;;4.88;2.83;;;;;;;;;;5045699;28;20044;-69
2023/08/07 02:37:52;;;;;;;6.32;3.10;;;;;;;;;;5044487;28;20026;-69
2023/08/07 02:40:18;;;;;;;7.43;3.20;;;;;;;;;;5051159;28;20103;-69
2023/08/07 02:42:44;;;;;;;5.30;2.85;;;;;;;;;;5045007;28;20029;-69
2023/08/07 02:45:09;;;;;;;5.40;3.13;;;;;;;;;;5043022;28;20135;-69
2023/08/07 02:47:35;;;;;;;10.52;3.53;;;;;;;;;;5043997;28;20500;-69
2023/08/07 02:50:00;;;;;;;8.32;3.35;;;;;;;;;;5040390;28;20109;-69
2023/08/07 02:52:26;;;;;;;13.10;3.80;;;;;;;;;;5054224;28;20024;-69
2023/08/07 02:54:51;;;;;;;6.68;3.35;;;;;;;;;;5036920;28;20061;-69
2023/08/07 02:57:16;;;;;;;6.20;3.45;;;;;;;;;;5064145;28;20036;-69
2023/08/07 02:59:42;;;;;;;8.10;3.38;;;;;;;;;;5063219;28;20039;-69
2023/08/07 03:02:07;;;;;;;9.80;3.15;;;;;;;;;;5064216;28;20730;-69
2023/08/07 03:04:32;;;;;;;5.57;3.28;;;;;;;;;;5053842;28;20028;-69
2023/08/07 03:06:58;;;;;;;7.53;3.47;;;;;;;;;;5065635;28;20096;-69
2023/08/07 03:09:23;;;;;;;7.53;3.75;;;;;;;;;;5065418;28;20044;-69
2023/08/07 03:11:49;;;;;;;8.15;3.35;;;;;;;;;;5063523;28;20070;-69
2023/08/07 03:14:14;;;;;;;14.20;3.75;;;;;;;;;;5063424;28;20033;-69
2023/08/07 03:16:39;;;;;;;7.60;3.67;;;;;;;;;;5064937;28;20040;-69
2023/08/07 03:19:04;;;;;;;9.75;3.15;;;;;;;;;;5065174;28;20064;-69
2023/08/07 03:21:30;;;;;;;6.50;2.90;;;;;;;;;;5052871;28;20033;-69
2023/08/07 03:23:55;;;;;;;6.68;3.50;;;;;;;;;;5064849;28;20694;-69
2023/08/07 03:26:21;;;;;;;8.98;3.50;;;;;;;;;;5065331;28;20059;-69
2023/08/07 03:28:46;;;;;;;7.65;3.40;;;;;;;;;;5060386;28;20047;-69
2023/08/07 03:31:12;;;;;;;6.55;3.15;;;;;;;;;;5045136;28;20032;-69
2023/08/07 03:33:37;;;;;;;10.52;3.53;;;;;;;;;;5046562;28;20072;-69
2023/08/07 03:36:03;;;;;;;6.97;3.38;;;;;;;;;;5048687;28;20070;-69
2023/08/07 03:38:28;;;;;;;6.30;3.15;;;;;;;;;;5049387;28;20115;-69
2023/08/07 03:40:54;;;;;;;9.40;3.50;;;;;;;;;;5051786;28;20032;-69
2023/08/07 03:43:19;;;;;;;7.90;3.85;;;;;;;;;;5055363;28;20533;-69
2023/08/07 03:45:44;;;;;;;9.07;3.78;;;;;;;;;;5049527;28;20029;-69
2023/08/07 03:48:10;;;;;;;11.40;3.88;;;;;;;;;;5049223;28;20722;-69
2023/08/07 03:50:37;;;;;;;11.75;3.90;;;;;;;;;;5050676;28;20039;-69
2023/08/07 03:53:03;;;;;;;10.93;3.85;;;;;;;;;;5063006;28;20064;-69
2023/08/07 03:55:28;;;;;;;5.72;3.45;;;;;;;;;;5061651;28;20401;-69
2023/08/07 03:57:53;;;;;;;12.05;4.20;;;;;;;;;;5059400;28;20053;-69
2023/08/07 04:00:20;;;;;;;11.43;3.75;;;;;;;;;;5063251;28;20040;-69
2023/08/07 04:02:46;;;;;;;10.10;3.83;;;;;;;;;;5068802;28;20130;-69
2023/08/07 04:05:11;;;;;;;10.73;3.90;;;;;;;;;;5067813;28;20098;-69
2023/08/07 04:07:36;;;;;;;7.40;3.55;;;;;;;;;;5068851;28;20024;-69
2023/08/07 04:10:02;;;;;;;8.10;4.22;;;;;;;;;;5069387;28;20804;-69
2023/08/07 04:12:27;;;;;;;9.05;4.03;;;;;;;;;;5057693;28;20090;-69
2023/08/07 04:14:53;;;;;;;9.65;4.78;;;;;;;;;;5046913;28;20039;-69
2023/08/07 04:17:18;;;;;;;17.00;4.72;;;;;;;;;;5061181;28;20029;-69
2023/08/07 04:19:43;;;;;;;11.80;4.10;;;;;;;;;;5047987;28;20017;-69
2023/08/07 04:22:09;;;;;;;7.18;3.83;;;;;;;;;;5058468;28;20551;-69
2023/08/07 04:24:34;;;;;;;12.23;4.38;;;;;;;;;;5067213;28;20066;-69
2023/08/07 04:26:59;;;;;;;8.90;4.43;;;;;;;;;;5068232;28;20029;-69
2023/08/07 04:29:25;;;;;;;7.38;4.32;;;;;;;;;;5060205;28;20057;-69
2023/08/07 04:31:50;;;;;;;8.57;4.70;;;;;;;;;;5043917;28;20114;-69
2023/08/07 04:34:15;;;;;;;7.82;4.18;;;;;;;;;;5064169;28;20016;-69
2023/08/07 04:36:41;;;;;;;8.75;4.50;;;;;;;;;;5067666;28;20078;-69
2023/08/07 04:39:07;;;;;;;11.82;4.60;;;;;;;;;;5054817;28;20029;-68
2023/08/07 04:41:32;;;;;;;9.27;4.65;;;;;;;;;;5047240;28;20036;-69
2023/08/07 04:43:58;;;;;;;11.00;4.90;;;;;;;;;;5047063;28;20037;-69
2023/08/07 04:46:23;;;;;;;10.63;5.38;;;;;;;;;;5046635;28;20083;-69
2023/08/07 04:48:48;;;;;;;14.45;4.10;;;;;;;;;;5054007;28;20029;-69
2023/08/07 04:51:15;;;;;;;12.05;4.57;;;;;;;;;;5047191;28;20459;-69
2023/08/07 04:53:41;;;;;;;10.75;4.68;;;;;;;;;;5047698;28;20029;-69
2023/08/07 04:56:06;;;;;;;10.50;4.65;;;;;;;;;;5047595;28;20632;-69
2023/08/07 04:58:32;;;;;;;10.65;4.55;;;;;;;;;;5042988;28;20033;-69
2023/08/07 05:00:58;;;;;;;10.15;4.85;;;;;;;;;;5028725;28;20013;-69
2023/08/07 05:03:24;;;;;;;13.13;5.07;;;;;;;;;;5029043;28;20718;-68
2023/08/07 05:05:50;;;;;;;13.23;5.03;;;;;;;;;;5047128;28;20068;-69
2023/08/07 05:08:16;;;;;;;9.02;4.70;;;;;;;;;;5048411;28;20056;-69
2023/08/07 05:10:42;;;;;;;9.45;4.57;;;;;;;;;;5045529;28;20052;-69
2023/08/07 05:13:07;;;;;;;10.45;4.80;;;;;;;;;;5045143;28;20064;-69
2023/08/07 05:15:33;;;;;;;11.95;5.15;;;;;;;;;;5046397;28;20580;-69
2023/08/07 05:17:59;;;;;;;8.95;4.50;;;;;;;;;;5047199;28;20041;-69
2023/08/07 05:20:24;;;;;;;10.13;4.35;;;;;;;;;;5046564;28;20777;-69
2023/08/07 05:22:49;;;;;;;9.32;5.05;;;;;;;;;;5046803;28;20641;-69
2023/08/07 05:25:15;;;;;;;13.55;5.25;;;;;;;;;;5047087;28;20025;-69
2023/08/07 05:27:45;;;;;;;10.50;5.28;;;;;;;;;;5045934;28;20632;-69
2023/08/07 05:30:11;;;;;;;11.98;4.82;;;;;;;;;;5046495;28;20190;-69
2023/08/07 05:32:37;;;;;;;11.85;4.95;;;;;;;;;;5046238;28;20062;-69
2023/08/07 05:35:05;;;;;;;9.75;5.05;;;;;;;;;;5046374;28;20064;-69
2023/08/07 05:37:31;;;;;;;14.95;5.40;;;;;;;;;;5046480;28;20042;-68
2023/08/07 05:39:57;;;;;;;11.90;4.78;;;;;;;;;;5045722;28;20031;-68
2023/08/07 05:42:22;;;;;;;12.05;4.63;;;;;;;;;;5046674;28;20033;-68
2023/08/07 05:44:47;;;;;;;8.65;5.00;;;;;;;;;;5045099;28;20720;-69
2023/08/07 05:47:13;;;;;;;13.57;4.93;;;;;;;;;;5046268;28;20037;-69
2023/08/07 05:49:38;;;;;;;10.73;5.30;;;;;;;;;;5039951;28;20025;-69
2023/08/07 05:52:04;;;;;;;13.40;5.10;;;;;;;;;;5046686;28;20029;-69
2023/08/07 05:54:29;;;;;;;12.05;5.15;;;;;;;;;;5045143;28;20037;-69
2023/08/07 05:56:55;;;;;;;16.30;4.97;;;;;;;;;;5044007;28;20032;-69
2023/08/07 05:59:20;;;;;;;15.38;5.25;;;;;;;;;;5042800;28;20064;-69
2023/08/07 06:01:45;;;;;;;9.95;4.43;;;;;;;;;;5043372;28;20032;-70
2023/08/07 06:04:11;;;;;;;11.52;4.72;;;;;;;;;;5040138;28;20032;-71
2023/08/07 06:06:39;;;;;;;13.15;4.95;;;;;;;;;;5041678;28;20033;-71
2023/08/07 06:09:04;;;;;;;11.30;4.75;;;;;;;;;;5037818;28;20033;-71
2023/08/07 06:11:29;;;;;;;12.82;5.00;;;;;;;;;;5039999;28;20040;-71
2023/08/07 06:13:55;;;;;;;10.82;4.40;;;;;;;;;;5034747;28;20033;-72
2023/08/07 06:16:20;;;;;;;11.80;5.13;;;;;;;;;;5027753;28;20017;-72
2023/08/07 06:18:46;;;;;;;9.63;5.10;;;;;;;;;;5043888;28;20040;-72
2023/08/07 06:21:11;;;;;;;13.27;5.35;;;;;;;;;;5038353;28;20040;-72
2023/08/07 06:23:37;;;;;;;11.48;4.40;;;;;;;;;;5057949;28;20082;-72
2023/08/07 06:26:04;;;;;;;10.95;5.45;;;;;;;;;;5039951;28;20052;-72
2023/08/07 06:28:31;;;;;;;11.93;5.43;;;;;;;;;;5056528;28;20039;-72
2023/08/07 06:31:03;;;;;;;12.23;5.50;;;;;;;;;;5031010;28;20433;-72
2023/08/07 06:33:28;;;;;;;14.50;5.53;;;;;;;;;;5025360;28;20038;-72
2023/08/07 06:35:54;;;;;;;10.48;5.10;;;;;;;;;;5032140;28;20037;-72
2023/08/07 06:38:19;;;;;;;14.38;5.32;;;;;;;;;;5032429;28;20048;-72
2023/08/07 06:40:45;;;;;;;14.82;5.30;;;;;;;;;;5045365;28;20041;-72
2023/08/07 06:43:10;;;;;;;14.00;5.68;;;;;;;;;;5044016;28;20052;-72
2023/08/07 06:45:35;;;;;;;10.88;5.90;;;;;;;;;;5045581;28;20120;-72
2023/08/07 06:48:01;;;;;;;12.65;5.10;;;;;;;;;;5044560;28;20379;-72
2023/08/07 06:50:26;;;;;;;13.32;5.70;;;;;;;;;;5024932;28;20030;-71
2023/08/07 06:52:52;;;;;;;14.68;5.28;;;;;;;;;;5012169;28;20033;-72
2023/08/07 06:55:18;;;;;;;18.10;5.88;;;;;;;;;;5045743;28;20053;-72
2023/08/07 06:57:44;;;;;;;10.85;4.88;;;;;;;;;;5045071;28;20044;-72
2023/08/07 07:00:10;;;;;;;11.52;5.82;;;;;;;;;;5045270;28;20098;-72
2023/08/07 07:02:36;;;;;;;11.57;5.60;;;;;;;;;;5045122;28;20033;-72
2023/08/07 07:05:01;;;;;;;10.52;5.13;;;;;;;;;;5044337;28;20048;-72
2023/08/07 07:07:27;;;;;;;11.85;5.28;;;;;;;;;;5036016;28;20483;-72
2023/08/07 07:09:53;;;;;;;10.68;5.53;;;;;;;;;;5064182;28;20064;-72
2023/08/07 07:12:18;;;;;;;10.70;4.82;;;;;;;;;;5064932;28;20053;-72
2023/08/07 07:14:43;;;;;;;15.10;5.70;;;;;;;;;;5064779;28;20059;-72
2023/08/07 07:17:09;;;;;;;9.63;4.88;;;;;;;;;;5045553;28;20029;-72
2023/08/07 07:19:34;;;;;;;9.30;5.00;;;;;;;;;;5044291;28;20102;-72
2023/08/07 07:21:59;;;;;;;9.90;4.90;;;;;;;;;;5007431;28;20026;-72
2023/08/07 07:24:25;;;;;;;11.32;4.65;;;;;;;;;;5010278;28;20049;-72
2023/08/07 07:26:50;;;;;;;11.45;4.72;;;;;;;;;;5009478;28;20037;-71
2023/08/07 07:29:16;;;;;;;18.25;4.82;;;;;;;;;;5031508;28;20627;-72
2023/08/07 07:31:42;;;;;;;14.85;4.35;;;;;;;;;;5044355;28;20025;-72
2023/08/07 07:34:07;;;;;;;9.75;4.78;;;;;;;;;;5045325;28;20525;-72
2023/08/07 07:36:32;;;;;;;10.07;4.63;;;;;;;;;;5044628;28;20044;-72
2023/08/07 07:38:58;;;;;;;9.48;4.15;;;;;;;;;;5044889;28;20032;-72
2023/08/07 07:41:24;;;;;;;8.70;4.20;;;;;;;;;;5043188;28;20045;-72
2023/08/07 07:43:49;;;;;;;8.25;3.42;;;;;;;;;;5044764;28;20033;-72
2023/08/07 07:46:14;;;;;;;10.75;4.03;;;;;;;;;;5045700;28;20571;-72
2023/08/07 07:48:40;;;;;;;8.77;3.80;;;;;;;;;;5048509;28;20037;-72
2023/08/07 07:51:05;;;;;;;6.85;3.70;;;;;;;;;;5055195;28;20036;-72
2023/08/07 07:53:31;;;;;;;7.85;3.50;;;;;;;;;;5045976;28;20041;-72
2023/08/07 07:55:56;;;;;;;7.55;3.20;;;;;;;;;;5045101;28;20112;-72
2023/08/07 07:58:23;;;;;;;8.43;3.72;;;;;;;;;;5044453;28;20434;-72
2023/08/07 08:00:49;;;;;;;6.90;3.88;;;;;;;;;;5044858;28;20037;-72
2023/08/07 08:03:14;;;;;;;7.53;3.22;;;;;;;;;;5044169;28;20044;-72
2023/08/07 08:05:40;;;;;;;4.85;2.50;;;;;;;;;;5044404;28;20128;-72
2023/08/07 08:08:09;;;;;;;5.70;2.80;;;;;;;;;;5044351;28;20037;-72
2023/08/07 08:10:35;;;;;;;13.82;2.85;;;;;;;;;;5044762;28;20282;-72
2023/08/07 08:13:00;;;;;;;7.35;2.72;;;;;;;;;;5045013;28;20539;-72
2023/08/07 08:15:25;;;;;;;4.30;2.45;;;;;;;;;;5043056;28;20037;-72
2023/08/07 08:17:51;;;;;;;5.40;2.50;;;;;;;;;;5043479;28;20492;-72
2023/08/07 08:20:18;;;;;;;5.65;2.50;;;;;;;;;;5046933;28;20446;-72
2023/08/07 08:22:46;;;;;;;5.75;2.53;;;;;;;;;;5046245;28;20021;-72
2023/08/07 08:25:11;;;;;;;7.63;2.53;;;;;;;;;;5047405;28;20048;-72
2023/08/07 08:27:40;;;;;;;3.55;2.22;;;;;;;;;;5046568;28;20057;-72
2023/08/07 08:30:07;;;;;;;4.65;2.22;;;;;;;;;;5047290;28;20041;-72
2023/08/07 08:32:32;;;;;;;3.42;2.10;;;;;;;;;;5046930;28;20068;-72
2023/08/07 08:34:58;;;;;;;4.28;2.28;;;;;;;;;;5047158;28;20532;-72
2023/08/07 08:37:23;;;;;;;4.40;2.25;;;;;;;;;;5048316;28;20033;-73
2023/08/07 08:39:49;;;;;;;3.78;2.15;;;;;;;;;;5045996;28;20625;-73
2023/08/07 08:42:14;;;;;;;4.28;2.15;;;;;;;;;;5048056;28;20033;-73
2023/08/07 08:44:41;;;;;;;5.03;2.40;;;;;;;;;;5047103;28;20045;-72
2023/08/07 08:47:08;;;;;;;7.03;2.30;;;;;;;;;;5047217;28;20506;-73
2023/08/07 08:49:45;;;;;;;4.60;2.50;;;;;;;;;;5045674;28;20044;-73
2023/08/07 08:52:11;;;;;;;4.70;3.03;;;;;;;;;;5047935;28;20047;-72
2023/08/07 08:54:37;;;;;;;4.32;2.40;;;;;;;;;;5046292;28;20029;-72
2023/08/07 08:57:03;;;;;;;5.72;2.28;;;;;;;;;;5034604;28;20465;-72
2023/08/07 08:59:28;;;;;;;3.22;1.98;;;;;;;;;;5027739;28;20040;-72
2023/08/07 09:01:54;;;;;;;6.13;2.25;;;;;;;;;;5027051;28;20034;-73
2023/08/07 09:04:19;;;;;;;3.80;2.08;;;;;;;;;;5027507;28;20804;-73
2023/08/07 09:06:46;;;;;;;5.00;3.00;;;;;;;;;;5030618;28;20855;-72
2023/08/07 09:09:13;;;;;;;3.55;2.38;;;;;;;;;;5034410;28;20041;-73
2023/08/07 09:11:41;;;;;;;4.43;2.20;;;;;;;;;;5034267;28;20071;-73
2023/08/07 09:14:09;;;;;;;5.18;2.50;;;;;;;;;;5036491;28;20133;-72
2023/08/07 09:16:36;;;;;;;4.25;2.33;;;;;;;;;;5049603;28;20458;-73
2023/08/07 09:19:01;;;;;;;3.83;1.60;;;;;;;;;;5048357;28;20035;-73
2023/08/07 09:21:27;;;;;;;4.47;1.77;;;;;;;;;;5047120;28;20414;-73
2023/08/07 09:23:53;;;;;;;2.55;1.83;;;;;;;;;;5046653;28;20064;-73
2023/08/07 09:26:23;;;;;;;3.53;2.00;;;;;;;;;;5047348;28;20072;-73
2023/08/07 09:28:51;;;;;;;3.08;1.83;;;;;;;;;;5046552;28;20055;-72
2023/08/07 09:31:16;;;;;;;3.67;2.03;;;;;;;;;;5045409;28;20128;-73
2023/08/07 09:33:42;;;;;;;2.83;1.85;;;;;;;;;;5046939;28;20129;-73
2023/08/07 09:36:07;;;;;;;2.92;1.90;;;;;;;;;;5046236;28;20124;-73
2023/08/07 09:38:33;;;;;;;2.72;1.60;;;;;;;;;;5046536;28;20044;-73
2023/08/07 09:40:59;;;;;;;4.22;1.60;;;;;;;;;;5046115;28;20052;-73
2023/08/07 09:43:25;;;;;;;2.97;1.83;;;;;;;;;;5046550;28;20571;-73
2023/08/07 09:45:51;;;;;;;3.08;1.65;;;;;;;;;;5046446;28;20110;-73
2023/08/07 09:48:24;;;;;;;3.17;1.95;;;;;;;;;;5041826;28;20036;-72
2023/08/07 09:50:50;;;;;;;2.55;1.30;;;;;;;;;;5040455;28;20048;-73
2023/08/07 09:53:15;;;;;;;2.53;1.35;;;;;;;;;;5038503;28;20091;-72
2023/08/07 09:55:40;;;;;;;6.40;1.77;;;;;;;;;;5045187;28;20126;-73
2023/08/07 09:58:08;;;;;;;2.92;1.88;;;;;;;;;;5044065;28;20021;-73
2023/08/07 10:00:35;;;;;;;2.40;1.50;;;;;;;;;;5027417;28;20178;-73
2023/08/07 10:03:01;;;;;;;3.08;1.70;;;;;;;;;;5020877;28;20415;-73
2023/08/07 10:05:27;;;;;;;4.28;1.90;;;;;;;;;;5025664;28;20711;-73
2023/08/07 10:07:54;;;;;;;2.63;1.70;;;;;;;;;;5025388;28;20561;-73
2023/08/07 10:10:20;;;;;;;2.65;1.65;;;;;;;;;;5026914;28;20036;-72
2023/08/07 10:12:47;;;;;;;3.28;2.17;;;;;;;;;;5020981;28;20044;-72
2023/08/07 10:15:15;;;;;;;2.42;1.77;;;;;;;;;;5035911;28;20056;-73
2023/08/07 10:17:41;;;;;;;2.20;1.60;;;;;;;;;;5031283;28;20132;-73
2023/08/07 10:20:08;;;;;;;4.38;1.90;;;;;;;;;;5026098;28;20533;-73
2023/08/07 10:22:36;;;;;;;3.38;2.03;;;;;;;;;;5025964;28;20056;-73
2023/08/07 10:25:02;;;;;;;5.35;3.28;;;;;;;;;;5035963;28;20100;-72
2023/08/07 10:27:35;;;;;;;4.20;1.98;;;;;;;;;;5046030;28;20030;-73
2023/08/07 10:30:04;;;;;;;5.07;1.85;;;;;;;;;;5038112;28;20565;-73
2023/08/07 10:32:30;;;;;;;2.58;1.95;;;;;;;;;;5046516;28;20045;-73
2023/08/07 10:34:56;;;;;;;2.47;1.58;;;;;;;;;;5037715;28;20105;-73
2023/08/07 10:37:41;;;;;;;4.88;1.88;;;;;;;;;;5033677;28;20076;-73
2023/08/07 10:40:11;;;;;;;3.70;2.22;;;;;;;;;;5017075;28;20045;-73
2023/08/07 10:42:54;;;;;;;3.65;1.95;;;;;;;;;;5025401;28;20040;-73
2023/08/07 10:45:22;;;;;;;;;;;;;;;;;;5025835;28;20037;-73
2023/08/07 10:47:57;;;;;;;2.83;1.77;;;;;;;;;;5025761;28;19951;-73
2023/08/07 10:50:28;;;;;;;7.05;1.90;;;;;;;;;;5025218;28;20213;-73
2023/08/07 10:52:54;;;;;;;2.10;1.60;;;;;;;;;;5023592;28;20029;-72
2023/08/07 10:55:19;;;;;;;2.20;1.58;;;;;;;;;;5017766;28;20083;-73
2023/08/07 10:57:46;;;;;;;2.13;1.60;;;;;;;;;;5008080;28;20510;-73
2023/08/07 11:00:12;;;;;;;3.45;1.80;;;;;;;;;;5015559;28;20041;-71
2023/08/07 11:02:41;;;;;;;4.88;1.52;;;;;;;;;;5015521;28;20033;-72
2023/08/07 11:05:07;;;;;;;5.22;2.55;;;;;;;;;;5056613;28;20174;-71
2023/08/07 11:07:32;;;;;;;3.33;2.60;;;;;;;;;;5025115;28;20104;-71
2023/08/07 11:09:58;;;;;;;4.00;2.70;;;;;;;;;;5027337;28;20020;-71
2023/08/07 11:12:26;;;;;;;5.43;2.53;;;;;;;;;;5028512;28;20901;-71
2023/08/07 11:14:52;;;;;;;4.28;2.58;;;;;;;;;;5028082;28;20033;-71
2023/08/07 11:17:18;;;;;;;4.43;3.00;;;;;;;;;;5021282;28;20099;-71
2023/08/07 11:19:47;;;;;;;4.93;3.13;;;;;;;;;;5022069;28;20029;-71
2023/08/07 11:22:12;;;;;;;7.40;2.97;;;;;;;;;;5005935;28;20514;-71
2023/08/07 11:24:37;;;;;;;3.85;2.50;;;;;;;;;;5021522;28;20026;-71
2023/08/07 11:27:03;;;;;;;4.80;2.60;;;;;;;;;;5025125;28;20159;-71
2023/08/07 11:29:30;;;;;;;3.75;2.90;;;;;;;;;;5035179;28;20041;-71
2023/08/07 11:31:56;;;;;;;2.85;2.33;;;;;;;;;;5041770;28;20037;-71
2023/08/07 11:34:22;;;;;;;3.88;2.72;;;;;;;;;;5043709;28;20025;-71
2023/08/07 11:36:48;;;;;;;3.58;2.90;;;;;;;;;;5049281;28;20741;-71
2023/08/07 11:39:13;;;;;;;3.90;3.00;;;;;;;;;;5038681;28;20532;-71
2023/08/07 11:41:40;;;;;;;5.53;3.60;;;;;;;;;;5042667;28;20517;-71
2023/08/07 11:44:08;;;;;;;4.88;3.47;;;;;;;;;;5042775;28;20036;-71
2023/08/07 11:46:33;;;;;;;4.45;3.40;;;;;;;;;;5040946;28;20024;-71
2023/08/07 11:48:59;;;;;;;3.70;3.17;;;;;;;;;;5041370;28;20077;-71
2023/08/07 11:51:24;;;;;;;3.55;2.83;;;;;;;;;;5042590;28;20129;-71
2023/08/07 11:53:50;;;;;;;5.18;3.10;;;;;;;;;;5038408;28;20544;-71
2023/08/07 11:56:16;;;;;;;6.47;3.22;;;;;;;;;;5049442;28;20537;-71
2023/08/07 11:58:48;;;;;;;3.08;2.60;;;;;;;;;;5054422;28;20027;-69
2023/08/07 12:01:16;;;;;;;3.83;2.63;;;;;;;;;;5053263;28;20056;-69
2023/08/07 12:03:51;;;;;;;3.85;2.40;;;;;;;;;;5048712;28;20071;-69
2023/08/07 12:06:16;;;;;;;2.20;2.00;;;;;;;;;;5043889;28;20446;-69
2023/08/07 12:08:42;;;;;;;4.90;2.30;;;;;;;;;;5042415;28;20118;-69
2023/08/07 12:11:11;;;;;;;3.63;2.00;;;;;;;;;;5044857;28;20037;-69
2023/08/07 12:13:41;;;;;;;3.13;2.17;;;;;;;;;;5042215;28;20024;-70
2023/08/07 12:16:08;;;;;;;3.53;2.10;;;;;;;;;;5047502;28;20036;-69
2023/08/07 12:18:35;;;;;;;2.97;2.00;;;;;;;;;;5045954;28;20421;-70
2023/08/07 12:21:03;;;;;;;3.40;1.77;;;;;;;;;;5046103;28;20036;-70
2023/08/07 12:23:28;;;;;;;2.50;1.98;;;;;;;;;;5047003;28;20100;-70
2023/08/07 12:25:55;;;;;;;2.45;2.05;;;;;;;;;;5043698;28;20144;-70
2023/08/07 12:28:20;;;;;;;2.30;1.80;;;;;;;;;;5051103;28;20120;-70
2023/08/07 12:30:46;;;;;;;1.85;1.70;;;;;;;;;;5043267;28;20124;-69
2023/08/07 12:33:13;;;;;;;4.25;1.90;;;;;;;;;;5039146;28;20067;-69
2023/08/07 12:35:39;;;;;;;3.45;2.10;;;;;;;;;;5046169;28;20064;-69
2023/08/07 12:38:04;;;;;;;2.10;1.90;;;;;;;;;;5044054;28;20037;-70
2023/08/07 12:40:31;;;;;;;1.95;1.75;;;;;;;;;;5038052;28;20087;-68
2023/08/07 12:42:56;;;;;;;3.38;1.85;;;;;;;;;;5026807;28;20706;-69
2023/08/07 12:45:23;;;;;;;3.58;1.98;;;;;;;;;;5026186;28;20129;-69
2023/08/07 12:47:48;;;;;;;2.10;1.40;;;;;;;;;;5026403;28;20587;-69
2023/08/07 12:50:13;;;;;;;2.05;1.70;;;;;;;;;;5026095;28;20049;-69
2023/08/07 12:52:39;;;;;;;2.40;1.73;;;;;;;;;;5027123;28;20543;-69
2023/08/07 12:55:05;;;;;;;1.60;1.50;;;;;;;;;;5046333;28;20094;-69
2023/08/07 12:57:31;;;;;;;3.05;1.60;;;;;;;;;;5045684;28;20039;-69
2023/08/07 12:59:56;;;;;;;1.70;1.48;;;;;;;;;;5044630;28;20029;-69
2023/08/07 13:02:22;;;;;;;2.00;1.63;;;;;;;;;;5033472;28;20125;-69
2023/08/07 13:04:47;;;;;;;3.15;1.90;;;;;;;;;;5009375;28;20029;-69
2023/08/07 13:07:12;;;;;;;2.15;1.88;;;;;;;;;;5017107;28;20038;-69
2023/08/07 13:09:38;;;;;;;1.95;1.83;;;;;;;;;;5004425;28;20025;-69
2023/08/07 13:12:04;;;;;;;3.15;2.00;;;;;;;;;;5008578;28;20086;-69
2023/08/07 13:14:29;;;;;;;2.75;1.80;;;;;;;;;;5007903;28;20040;-69
2023/08/07 13:16:55;;;;;;;2.08;1.58;;;;;;;;;;5014518;28;20045;-69
2023/08/07 13:19:20;;;;;;;5.88;1.48;;;;;;;;;;5024582;28;20056;-69
2023/08/07 13:21:45;;;;;;;3.33;1.33;;;;;;;;;;5032433;28;20665;-69
2023/08/07 13:24:12;;;;;;;2.22;1.50;;;;;;;;;;5019714;28;20523;-69
2023/08/07 13:26:38;;;;;;;1.55;1.30;;;;;;;;;;5020930;28;20025;-69
2023/08/07 13:29:04;;;;;;;3.53;1.60;;;;;;;;;;5022252;28;20168;-68
2023/08/07 13:31:29;;;;;;;2.00;1.40;;;;;;;;;;5017225;28;20113;-69
2023/08/07 13:33:54;;;;;;;2.13;1.40;;;;;;;;;;5022405;28;20462;-69
2023/08/07 13:36:20;;;;;;;1.50;1.40;;;;;;;;;;5024978;28;20124;-69
2023/08/07 13:38:45;;;;;;;1.88;1.50;;;;;;;;;;5024974;28;20037;-69
2023/08/07 13:41:11;;;;;;;3.08;1.45;;;;;;;;;;5025100;28;20033;-69
2023/08/07 13:43:37;;;;;;;1.88;1.13;;;;;;;;;;5025191;28;20025;-69
2023/08/07 13:46:02;;;;;;;2.75;1.30;;;;;;;;;;5026577;28;20457;-69
2023/08/07 13:48:28;;;;;;;2.38;1.48;;;;;;;;;;5023295;28;20057;-70
2023/08/07 13:50:53;;;;;;;2.47;1.20;;;;;;;;;;5019794;28;20033;-70
2023/08/07 13:53:19;;;;;;;3.65;1.00;;;;;;;;;;5021481;28;20041;-71
2023/08/07 13:55:46;;;;;;;0.98;0.77;;;;;;;;;;5018396;28;20025;-70
2023/08/07 13:58:15;;;;;;;3.00;0.95;;;;;;;;;;5020571;28;20560;-70
2023/08/07 14:00:40;;;;;;;1.45;1.00;;;;;;;;;;5020120;28;20465;-70
2023/08/07 14:03:06;;;;;;;1.73;1.15;;;;;;;;;;5025303;28;20584;-71
2023/08/07 14:05:31;;;;;;;1.63;1.10;;;;;;;;;;5027219;28;20049;-70
2023/08/07 14:07:57;;;;;;;1.88;1.02;;;;;;;;;;5024299;28;20156;-70
2023/08/07 14:10:23;;;;;;;1.73;1.15;;;;;;;;;;5015123;28;20557;-70
2023/08/07 14:12:48;;;;;;;3.53;1.17;;;;;;;;;;5020473;28;20037;-70
2023/08/07 14:15:13;;;;;;;2.90;1.10;;;;;;;;;;5020267;28;20040;-70
2023/08/07 14:17:39;;;;;;;2.35;1.20;;;;;;;;;;5026790;28;20045;-70
2023/08/07 14:20:05;;;;;;;1.55;1.15;;;;;;;;;;5037887;28;20030;-70
2023/08/07 14:22:31;;;;;;;1.88;1.10;;;;;;;;;;5022357;28;20029;-70
2023/08/07 14:24:56;;;;;;;1.90;1.27;;;;;;;;;;5022489;28;20108;-69
2023/08/07 14:27:22;;;;;;;2.58;1.25;;;;;;;;;;5002995;28;20125;-70
2023/08/07 14:29:47;;;;;;;4.32;1.20;;;;;;;;;;4990468;28;20042;-70
2023/08/07 14:32:13;;;;;;;2.03;1.17;;;;;;;;;;4985997;28;20057;-70
2023/08/07 14:34:38;;;;;;;2.13;1.20;;;;;;;;;;4984829;28;20451;-70